createdAt,value
2018-02-13T00:00:14.972Z,59.90
2018-02-13T00:01:16.059Z,59.70
2018-02-13T00:02:17.156Z,60.30
2018-02-13T00:03:18.231Z,59.70
2018-02-13T00:04:19.318Z,59.40
2018-02-13T00:05:20.411Z,59.60
2018-02-13T00:06:21.497Z,58.90
2018-02-13T00:07:23.323Z,60.40
2018-02-13T00:08:24.428Z,59.50
2018-02-13T00:09:25.526Z,59.40
2018-02-13T00:10:27.341Z,59.30
2018-02-13T00:11:28.502Z,59.30
2018-02-13T00:12:29.583Z,59.10
2018-02-13T00:13:30.667Z,58.90
2018-02-13T00:14:32.507Z,58.80
2018-02-13T00:15:33.578Z,58.80
2018-02-13T00:16:34.664Z,58.60
2018-02-13T00:17:35.747Z,58.20
2018-02-13T00:18:37.583Z,57.90
2018-02-13T00:19:38.669Z,57.90
2018-02-13T00:20:39.746Z,58.20
2018-02-13T00:21:40.842Z,58.60
2018-02-13T00:22:46.886Z,58.60
2018-02-13T00:23:47.988Z,59.60
2018-02-13T00:24:49.075Z,60.10
2018-02-13T00:25:50.150Z,60.00
2018-02-13T00:26:51.227Z,59.00
2018-02-13T00:27:52.299Z,59.10
2018-02-13T00:28:53.388Z,59.00
2018-02-13T00:29:54.446Z,59.00
2018-02-13T00:30:56.270Z,59.00
2018-02-13T00:31:57.364Z,58.90
2018-02-13T00:32:58.505Z,59.00
2018-02-13T00:33:59.579Z,59.00
2018-02-13T00:35:01.418Z,59.20
2018-02-13T00:36:02.540Z,59.20
2018-02-13T00:37:03.631Z,59.20
2018-02-13T00:38:04.714Z,59.30
2018-02-13T00:39:05.807Z,59.30
2018-02-13T00:40:06.909Z,59.40
2018-02-13T00:41:07.986Z,59.40
2018-02-13T00:42:09.089Z,59.70
2018-02-13T00:43:10.915Z,59.90
2018-02-13T00:44:12.739Z,60.50
2018-02-13T00:45:13.826Z,60.40
2018-02-13T00:46:14.911Z,60.60
2018-02-13T00:47:16.736Z,59.40
2018-02-13T00:48:17.828Z,59.40
2018-02-13T00:49:18.932Z,59.60
2018-02-13T00:50:20.754Z,59.70
2018-02-13T00:51:21.824Z,60.00
2018-02-13T00:52:23.675Z,59.50
2018-02-13T00:53:24.752Z,59.50
2018-02-13T00:54:25.835Z,59.50
2018-02-13T00:55:27.687Z,59.90
2018-02-13T00:56:28.791Z,59.90
2018-02-13T00:57:29.859Z,59.90
2018-02-13T00:58:31.687Z,60.00
2018-02-13T00:59:33.532Z,59.90
2018-02-13T01:00:34.599Z,59.90
2018-02-13T01:01:36.438Z,60.00
2018-02-13T01:02:37.551Z,60.00
2018-02-13T01:03:38.639Z,59.90
2018-02-13T01:04:39.724Z,60.00
2018-02-13T01:05:41.551Z,59.80
2018-02-13T01:06:42.863Z,59.80
2018-02-13T01:07:43.954Z,60.10
2018-02-13T01:08:45.779Z,59.50
2018-02-13T01:09:46.879Z,59.50
2018-02-13T01:10:47.960Z,59.30
2018-02-13T01:11:49.787Z,59.30
2018-02-13T01:12:50.891Z,59.30
2018-02-13T01:13:51.991Z,59.30
2018-02-13T01:14:53.836Z,59.70
2018-02-13T01:15:55.651Z,59.80
2018-02-13T01:16:56.730Z,59.80
2018-02-13T01:17:57.807Z,59.80
2018-02-13T01:18:58.898Z,59.70
2018-02-13T01:19:59.995Z,59.40
2018-02-13T01:21:01.067Z,59.30
2018-02-13T01:22:02.156Z,59.50
2018-02-13T01:23:03.247Z,58.80
2018-02-13T01:24:04.334Z,58.80
2018-02-13T01:25:05.414Z,59.00
2018-02-13T01:26:06.482Z,58.80
2018-02-13T01:27:07.574Z,59.20
2018-02-13T01:28:08.662Z,59.10
2018-02-13T01:29:09.776Z,59.20
2018-02-13T01:30:10.907Z,59.30
2018-02-13T01:31:11.999Z,59.40
2018-02-13T01:32:13.078Z,59.50
2018-02-13T01:33:14.183Z,59.70
2018-02-13T01:34:15.274Z,59.70
2018-02-13T01:35:17.088Z,59.20
2018-02-13T01:36:18.158Z,59.10
2018-02-13T01:37:19.243Z,59.30
2018-02-13T01:38:20.331Z,59.40
2018-02-13T01:39:21.427Z,59.70
2018-02-13T01:40:22.510Z,59.50
2018-02-13T01:41:23.594Z,59.00
2018-02-13T01:42:25.414Z,59.00
2018-02-13T01:43:26.559Z,59.00
2018-02-13T01:44:27.758Z,59.20
2018-02-13T01:45:29.669Z,59.30
2018-02-13T01:46:31.483Z,59.20
2018-02-13T01:47:32.567Z,59.20
2018-02-13T01:48:34.383Z,59.30
2018-02-13T01:49:35.458Z,59.40
2018-02-13T01:50:36.547Z,59.50
2018-02-13T01:51:37.615Z,59.70
2018-02-13T01:52:39.434Z,58.70
2018-02-13T01:53:40.502Z,58.70
2018-02-13T01:54:41.578Z,59.30
2018-02-13T01:55:42.672Z,59.50
2018-02-13T01:56:43.748Z,59.50
2018-02-13T01:57:44.830Z,59.70
2018-02-13T01:58:45.930Z,59.60
2018-02-13T01:59:47.017Z,59.50
2018-02-13T02:00:48.108Z,59.60
2018-02-13T02:01:49.929Z,60.00
2018-02-13T02:02:51.011Z,59.80
2018-02-13T02:03:52.077Z,59.30
2018-02-13T02:04:53.170Z,59.40
2018-02-13T02:05:54.297Z,59.70
2018-02-13T02:06:55.363Z,60.00
2018-02-13T02:07:56.423Z,60.30
2018-02-13T02:08:57.522Z,60.60
2018-02-13T02:09:58.631Z,60.50
2018-02-13T02:10:59.727Z,60.20
2018-02-13T02:12:00.822Z,59.70
2018-02-13T02:13:01.910Z,59.40
2018-02-13T02:14:03.007Z,59.20
2018-02-13T02:15:04.066Z,59.30
2018-02-13T02:16:05.168Z,59.50
2018-02-13T02:17:06.260Z,59.50
2018-02-13T02:18:07.378Z,58.40
2018-02-13T02:19:09.228Z,58.40
2018-02-13T02:20:10.431Z,58.40
2018-02-13T02:21:11.552Z,58.40
2018-02-13T02:22:12.638Z,58.10
2018-02-13T02:23:14.473Z,58.50
2018-02-13T02:24:15.543Z,58.50
2018-02-13T02:25:16.641Z,58.70
2018-02-13T02:26:17.743Z,58.90
2018-02-13T02:27:19.723Z,58.90
2018-02-13T02:28:21.543Z,58.80
2018-02-13T02:29:22.634Z,58.80
2018-02-13T02:30:23.739Z,58.90
2018-02-13T02:31:25.588Z,59.00
2018-02-13T02:32:27.406Z,59.50
2018-02-13T02:33:28.510Z,59.70
2018-02-13T02:34:29.590Z,59.10
2018-02-13T02:35:30.686Z,59.00
2018-02-13T02:36:31.874Z,59.10
2018-02-13T02:37:33.710Z,59.40
2018-02-13T02:38:34.797Z,59.30
2018-02-13T02:39:35.895Z,59.30
2018-02-13T02:40:36.979Z,59.50
2018-02-13T02:41:38.072Z,59.60
2018-02-13T02:42:51.421Z,59.70
2018-02-13T02:43:52.511Z,59.70
2018-02-13T02:44:53.602Z,59.80
2018-02-13T02:45:54.693Z,59.90
2018-02-13T02:46:55.822Z,60.00
2018-02-13T02:47:56.923Z,60.10
2018-02-13T02:48:57.995Z,60.00
2018-02-13T02:49:59.070Z,60.00
2018-02-13T02:51:00.148Z,60.20
2018-02-13T02:52:01.984Z,60.40
2018-02-13T02:53:03.823Z,60.40
2018-02-13T02:54:04.899Z,60.50
2018-02-13T02:55:05.970Z,60.40
2018-02-13T02:56:07.094Z,60.30
2018-02-13T02:57:08.179Z,60.30
2018-02-13T02:58:10.009Z,60.60
2018-02-13T02:59:11.835Z,60.70
2018-02-13T03:00:12.904Z,60.60
2018-02-13T03:01:14.735Z,60.70
2018-02-13T03:02:15.816Z,60.70
2018-02-13T03:03:16.908Z,60.80
2018-02-13T03:04:18.727Z,60.90
2018-02-13T03:05:19.856Z,60.80
2018-02-13T03:06:20.922Z,60.90
2018-02-13T03:07:22.784Z,60.90
2018-02-13T03:08:23.866Z,60.80
2018-02-13T03:09:24.952Z,60.80
2018-02-13T03:10:26.046Z,60.60
2018-02-13T03:11:27.145Z,60.70
2018-02-13T03:12:28.234Z,60.80
2018-02-13T03:13:29.309Z,60.60
2018-02-13T03:14:30.391Z,60.50
2018-02-13T03:15:31.471Z,60.10
2018-02-13T03:16:32.565Z,60.20
2018-02-13T03:17:34.384Z,61.30
2018-02-13T03:18:35.464Z,60.30
2018-02-13T03:19:37.280Z,60.30
2018-02-13T03:20:38.382Z,60.20
2018-02-13T03:21:39.470Z,60.40
2018-02-13T03:22:41.299Z,60.40
2018-02-13T03:23:42.375Z,60.40
2018-02-13T03:24:43.484Z,60.50
2018-02-13T03:25:44.703Z,60.50
2018-02-13T03:26:45.783Z,60.30
2018-02-13T03:27:46.904Z,60.30
2018-02-13T03:28:47.991Z,60.10
2018-02-13T03:29:49.079Z,60.20
2018-02-13T03:30:50.174Z,60.10
2018-02-13T03:31:52.003Z,60.00
2018-02-13T03:32:53.127Z,60.70
2018-02-13T03:33:54.215Z,60.20
2018-02-13T03:34:55.294Z,60.40
2018-02-13T03:35:56.379Z,60.10
2018-02-13T03:36:57.474Z,60.20
2018-02-13T03:37:58.583Z,60.10
2018-02-13T03:38:59.667Z,59.90
2018-02-13T03:40:01.483Z,59.60
2018-02-13T03:41:03.327Z,60.00
2018-02-13T03:42:04.407Z,60.00
2018-02-13T03:43:05.503Z,59.80
2018-02-13T03:44:06.593Z,60.00
2018-02-13T03:45:07.702Z,60.10
2018-02-13T03:46:08.784Z,60.30
2018-02-13T03:47:09.866Z,60.00
2018-02-13T03:48:10.992Z,60.30
2018-02-13T03:49:12.835Z,59.90
2018-02-13T03:50:14.666Z,60.10
2018-02-13T03:51:15.769Z,60.00
2018-02-13T03:52:16.859Z,60.20
2018-02-13T03:53:17.952Z,60.10
2018-02-13T03:54:19.020Z,60.00
2018-02-13T03:55:20.082Z,59.70
2018-02-13T03:56:21.179Z,59.40
2018-02-13T03:57:22.269Z,59.60
2018-02-13T03:58:23.355Z,59.60
2018-02-13T03:59:24.455Z,59.60
2018-02-13T04:00:25.533Z,59.80
2018-02-13T04:01:26.623Z,59.70
2018-02-13T04:02:27.702Z,59.60
2018-02-13T04:03:28.770Z,59.70
2018-02-13T04:04:29.840Z,59.50
2018-02-13T04:05:31.659Z,59.80
2018-02-13T04:06:32.787Z,59.70
2018-02-13T04:07:33.863Z,59.70
2018-02-13T04:08:34.947Z,59.80
2018-02-13T04:09:36.027Z,59.80
2018-02-13T04:10:37.123Z,60.00
2018-02-13T04:11:38.200Z,60.10
2018-02-13T04:12:39.278Z,60.00
2018-02-13T04:13:40.406Z,60.10
2018-02-13T04:14:41.487Z,60.10
2018-02-13T04:15:42.615Z,60.20
2018-02-13T04:16:44.422Z,60.00
2018-02-13T04:17:45.500Z,60.00
2018-02-13T04:18:46.665Z,60.10
2018-02-13T04:19:47.795Z,60.20
2018-02-13T04:20:49.068Z,60.30
2018-02-13T04:21:50.175Z,60.50
2018-02-13T04:22:51.263Z,60.30
2018-02-13T04:23:52.370Z,60.40
2018-02-13T04:24:53.439Z,60.50
2018-02-13T04:25:55.251Z,60.70
2018-02-13T04:26:56.314Z,60.70
2018-02-13T04:27:58.150Z,60.40
2018-02-13T04:28:59.239Z,60.40
2018-02-13T04:30:00.315Z,60.40
2018-02-13T04:31:01.511Z,60.50
2018-02-13T04:32:02.603Z,60.20
2018-02-13T04:33:03.705Z,60.30
2018-02-13T04:34:04.812Z,60.50
2018-02-13T04:35:05.903Z,60.20
2018-02-13T04:36:07.020Z,60.10
2018-02-13T04:37:08.847Z,60.40
2018-02-13T04:38:09.940Z,60.40
2018-02-13T04:39:11.035Z,60.20
2018-02-13T04:40:12.885Z,59.90
2018-02-13T04:41:14.000Z,60.00
2018-02-13T04:42:15.097Z,60.00
2018-02-13T04:43:16.207Z,60.10
2018-02-13T04:44:17.319Z,60.10
2018-02-13T04:45:18.427Z,60.20
2018-02-13T04:46:19.610Z,60.10
2018-02-13T04:47:20.702Z,60.10
2018-02-13T04:48:21.791Z,60.10
2018-02-13T04:49:22.886Z,60.10
2018-02-13T04:50:24.731Z,60.00
2018-02-13T04:51:26.550Z,60.10
2018-02-13T04:52:27.639Z,60.10
2018-02-13T04:53:28.718Z,60.20
2018-02-13T04:58:45.108Z,59.90
2018-02-13T04:59:46.231Z,60.30
2018-02-13T05:00:47.295Z,60.50
2018-02-13T05:01:49.313Z,60.70
2018-02-13T05:02:50.390Z,60.90
2018-02-13T05:03:51.460Z,61.20
2018-02-13T05:04:52.557Z,61.00
2018-02-13T05:05:53.631Z,61.20
2018-02-13T05:06:54.751Z,61.10
2018-02-13T05:07:55.827Z,61.20
2018-02-13T05:08:56.979Z,61.20
2018-02-13T05:09:58.089Z,61.20
2018-02-13T05:10:59.172Z,61.10
2018-02-13T05:12:01.021Z,60.90
2018-02-13T05:13:08.103Z,60.80
2018-02-13T05:14:09.197Z,60.80
2018-02-13T05:15:10.339Z,61.10
2018-02-13T05:16:11.424Z,61.20
2018-02-13T05:17:12.513Z,61.20
2018-02-13T05:18:13.604Z,61.10
2018-02-13T05:19:14.677Z,61.00
2018-02-13T05:20:15.783Z,61.00
2018-02-13T05:21:16.871Z,60.80
2018-02-13T05:22:17.947Z,60.80
2018-02-13T05:23:19.029Z,60.60
2018-02-13T05:24:20.855Z,60.90
2018-02-13T05:25:21.939Z,60.80
2018-02-13T05:26:23.019Z,60.80
2018-02-13T05:27:24.124Z,60.40
2018-02-13T05:28:25.203Z,60.30
2018-02-13T05:29:26.309Z,60.10
2018-02-13T05:30:27.418Z,60.20
2018-02-13T05:31:28.508Z,60.30
2018-02-13T05:32:29.595Z,60.40
2018-02-13T05:33:30.687Z,60.50
2018-02-13T05:34:31.779Z,60.60
2018-02-13T05:35:32.887Z,60.80
2018-02-13T05:36:33.988Z,60.60
2018-02-13T05:37:35.114Z,61.10
2018-02-13T05:38:36.938Z,61.10
2018-02-13T05:39:38.012Z,61.10
2018-02-13T05:40:39.113Z,61.10
2018-02-13T05:41:40.183Z,61.10
2018-02-13T05:42:41.341Z,61.10
2018-02-13T05:43:42.383Z,61.10
2018-02-13T05:44:43.469Z,61.20
2018-02-13T05:45:44.575Z,61.20
2018-02-13T05:46:45.674Z,61.20
2018-02-13T05:47:46.763Z,61.20
2018-02-13T05:48:47.862Z,61.20
2018-02-13T05:49:48.955Z,61.50
2018-02-13T05:50:50.053Z,61.40
2018-02-13T05:51:51.123Z,61.30
2018-02-13T05:52:52.240Z,61.40
2018-02-13T05:53:53.329Z,61.30
2018-02-13T05:54:55.865Z,61.80
2018-02-13T05:55:56.964Z,61.90
2018-02-13T05:56:58.036Z,62.00
2018-02-13T05:57:59.156Z,62.40
2018-02-13T05:59:00.302Z,62.30
2018-02-13T06:00:01.475Z,62.40
2018-02-13T06:01:03.321Z,62.50
2018-02-13T06:02:05.170Z,63.20
2018-02-13T06:03:06.263Z,62.70
2018-02-13T06:04:07.384Z,62.80
2018-02-13T06:05:08.502Z,62.90
2018-02-13T06:06:10.208Z,63.20
2018-02-13T06:07:11.311Z,63.40
2018-02-13T06:08:12.405Z,63.50
2018-02-13T06:09:13.490Z,63.80
2018-02-13T06:10:14.592Z,63.80
2018-02-13T06:11:15.711Z,64.00
2018-02-13T06:12:16.826Z,63.90
2018-02-13T06:13:17.936Z,64.80
2018-02-13T06:14:19.073Z,64.10
2018-02-13T06:15:21.307Z,64.20
2018-02-13T06:16:22.412Z,64.10
2018-02-13T06:17:23.516Z,64.20
2018-02-13T06:18:24.635Z,64.20
2018-02-13T06:19:26.495Z,64.70
2018-02-13T06:20:28.331Z,65.00
2018-02-13T06:21:29.429Z,65.00
2018-02-13T06:22:31.361Z,65.00
2018-02-13T06:23:32.483Z,65.10
2018-02-13T06:24:34.355Z,65.00
2018-02-13T06:25:35.507Z,64.70
2018-02-13T06:26:36.636Z,65.00
2018-02-13T06:27:37.756Z,64.90
2018-02-13T06:28:38.895Z,64.90
2018-02-13T06:29:40.001Z,65.00
2018-02-13T06:30:41.102Z,65.30
2018-02-13T06:31:42.232Z,66.20
2018-02-13T06:32:43.315Z,65.60
2018-02-13T06:33:44.466Z,65.70
2018-02-13T06:34:45.535Z,65.60
2018-02-13T06:35:46.640Z,65.60
2018-02-13T06:36:47.740Z,65.40
2018-02-13T06:37:48.828Z,65.60
2018-02-13T06:38:49.920Z,65.50
2018-02-13T06:39:51.021Z,65.40
2018-02-13T06:40:52.233Z,65.50
2018-02-13T06:41:53.339Z,65.70
2018-02-13T06:42:54.464Z,65.70
2018-02-13T06:43:55.565Z,65.80
2018-02-13T06:44:56.658Z,65.70
2018-02-13T06:45:57.761Z,65.70
2018-02-13T06:46:58.909Z,65.50
2018-02-13T06:48:00.022Z,64.80
2018-02-13T06:49:01.127Z,65.40
2018-02-13T06:50:02.301Z,65.50
2018-02-13T06:51:03.409Z,65.40
2018-02-13T06:52:04.660Z,65.20
2018-02-13T06:53:05.982Z,65.30
2018-02-13T06:54:07.968Z,65.60
2018-02-13T06:55:09.149Z,65.70
2018-02-13T06:56:10.279Z,65.70
2018-02-13T06:57:12.177Z,65.60
2018-02-13T06:58:13.332Z,65.60
2018-02-13T06:59:14.490Z,65.80
2018-02-13T07:00:15.606Z,65.80
2018-02-13T07:01:17.548Z,65.30
2018-02-13T07:02:18.701Z,65.30
2018-02-13T07:03:19.880Z,65.00
2018-02-13T07:04:21.037Z,64.80
2018-02-13T07:05:22.206Z,64.90
2018-02-13T07:06:23.373Z,64.80
2018-02-13T07:07:24.532Z,64.80
2018-02-13T07:08:25.698Z,64.80
2018-02-13T07:09:27.596Z,64.90
2018-02-13T07:10:28.789Z,64.90
2018-02-13T07:11:30.683Z,64.10
2018-02-13T07:12:31.885Z,64.10
2018-02-13T07:13:33.024Z,63.90
2018-02-13T07:14:34.138Z,64.00
2018-02-13T07:15:35.964Z,64.90
2018-02-13T07:16:37.032Z,64.90
2018-02-13T07:17:38.876Z,64.80
2018-02-13T07:18:39.990Z,64.70
2018-02-13T07:19:41.142Z,64.90
2018-02-13T07:20:43.036Z,64.90
2018-02-13T07:21:44.136Z,64.90
2018-02-13T07:22:46.040Z,64.90
2018-02-13T07:23:47.164Z,64.80
2018-02-13T07:24:48.256Z,64.90
2018-02-13T07:25:49.365Z,64.90
2018-02-13T07:26:50.469Z,64.90
2018-02-13T07:27:51.615Z,64.80
2018-02-13T07:28:52.724Z,64.60
2018-02-13T07:29:53.836Z,64.80
2018-02-13T07:30:54.941Z,64.40
2018-02-13T07:31:56.052Z,64.40
2018-02-13T07:32:57.148Z,64.20
2018-02-13T07:33:58.600Z,64.00
2018-02-13T07:34:59.692Z,64.00
2018-02-13T07:36:00.793Z,63.90
2018-02-13T07:37:02.657Z,63.50
2018-02-13T07:38:04.512Z,63.60
2018-02-13T07:39:06.330Z,63.40
2018-02-13T07:40:07.397Z,63.30
2018-02-13T07:41:09.248Z,63.10
2018-02-13T07:42:11.103Z,63.10
2018-02-13T07:43:12.233Z,63.00
2018-02-13T07:44:14.149Z,63.20
2018-02-13T07:45:15.284Z,63.00
2018-02-13T07:46:16.418Z,62.90
2018-02-13T07:47:18.369Z,63.00
2018-02-13T07:48:19.547Z,62.90
2018-02-13T07:49:20.708Z,63.20
2018-02-13T07:50:21.867Z,63.10
2018-02-13T07:51:23.010Z,62.90
2018-02-13T07:52:24.949Z,63.00
2018-02-13T07:53:26.093Z,63.00
2018-02-13T07:54:27.240Z,62.90
2018-02-13T07:55:29.122Z,63.10
2018-02-13T07:56:30.259Z,63.10
2018-02-13T07:57:31.380Z,63.40
2018-02-13T07:58:32.548Z,63.30
2018-02-13T07:59:33.721Z,63.40
2018-02-13T08:00:34.861Z,63.70
2018-02-13T08:01:35.991Z,63.50
2018-02-13T08:02:37.138Z,63.80
2018-02-13T08:03:39.065Z,64.30
2018-02-13T08:04:40.208Z,63.70
2018-02-13T08:05:41.358Z,63.60
2018-02-13T08:06:42.489Z,63.40
2018-02-13T08:07:43.725Z,63.30
2018-02-13T08:08:44.845Z,63.20
2018-02-13T08:09:45.971Z,63.30
2018-02-13T08:10:47.122Z,63.40
2018-02-13T08:11:48.254Z,63.30
2018-02-13T08:12:49.407Z,63.30
2018-02-13T08:13:50.538Z,63.40
2018-02-13T08:14:51.673Z,63.40
2018-02-13T08:15:52.856Z,63.40
2018-02-13T08:16:54.008Z,63.40
2018-02-13T08:17:55.167Z,63.40
2018-02-13T08:18:57.102Z,63.00
2018-02-13T08:19:59.027Z,63.70
2018-02-13T08:21:00.194Z,63.10
2018-02-13T08:22:02.063Z,62.60
2018-02-13T08:23:03.214Z,62.60
2018-02-13T08:24:04.328Z,62.60
2018-02-13T08:25:05.461Z,62.60
2018-02-13T08:26:06.606Z,62.60
2018-02-13T08:27:07.762Z,62.50
2018-02-13T08:28:08.960Z,62.50
2018-02-13T08:29:10.869Z,62.00
2018-02-13T08:30:12.043Z,62.00
2018-02-13T08:31:13.173Z,61.80
2018-02-13T08:32:15.028Z,61.30
2018-02-13T08:33:16.169Z,61.30
2018-02-13T08:34:18.055Z,61.30
2018-02-13T08:35:19.168Z,61.30
2018-02-13T08:36:20.265Z,61.20
2018-02-13T08:37:21.360Z,61.00
2018-02-13T08:38:22.461Z,61.20
2018-02-13T08:39:23.601Z,61.40
2018-02-13T08:40:24.897Z,61.10
2018-02-13T08:41:26.740Z,61.20
2018-02-13T08:42:29.353Z,61.70
2018-02-13T08:43:30.473Z,61.90
2018-02-13T08:44:32.353Z,62.40
2018-02-13T08:45:33.484Z,62.40
2018-02-13T08:46:34.600Z,62.80
2018-02-13T08:47:35.740Z,62.70
2018-02-13T08:48:36.825Z,63.60
2018-02-13T08:49:37.951Z,62.90
2018-02-13T08:50:39.098Z,62.60
2018-02-13T08:51:40.204Z,62.60
2018-02-13T08:52:42.092Z,62.40
2018-02-13T08:53:43.942Z,62.00
2018-02-13T08:54:45.028Z,62.00
2018-02-13T08:55:46.116Z,61.30
2018-02-13T08:56:47.232Z,61.60
2018-02-13T08:57:48.295Z,61.70
2018-02-13T08:58:50.095Z,61.90
2018-02-13T08:59:51.176Z,61.90
2018-02-13T09:00:53.045Z,61.90
2018-02-13T09:01:54.124Z,61.90
2018-02-13T09:02:55.215Z,61.60
2018-02-13T09:03:56.298Z,61.90
2018-02-13T09:04:57.376Z,61.50
2018-02-13T09:05:59.208Z,61.50
2018-02-13T09:07:01.076Z,61.50
2018-02-13T09:08:02.147Z,61.40
2018-02-13T09:09:03.251Z,61.50
2018-02-13T09:10:04.336Z,61.20
2018-02-13T09:11:05.399Z,61.10
2018-02-13T09:12:06.462Z,60.90
2018-02-13T09:13:07.541Z,60.70
2018-02-13T09:14:08.631Z,61.00
2018-02-13T09:15:09.713Z,60.30
2018-02-13T09:16:11.527Z,60.70
2018-02-13T09:17:12.604Z,60.70
2018-02-13T09:18:13.686Z,60.80
2018-02-13T09:19:14.763Z,60.70
2018-02-13T09:20:15.894Z,60.90
2018-02-13T09:21:16.960Z,61.00
2018-02-13T09:22:18.032Z,60.80
2018-02-13T09:23:19.096Z,60.20
2018-02-13T09:24:20.175Z,60.30
2018-02-13T09:25:21.254Z,60.60
2018-02-13T09:26:22.337Z,60.30
2018-02-13T09:27:23.431Z,60.50
2018-02-13T09:28:24.517Z,60.60
2018-02-13T09:29:25.618Z,60.00
2018-02-13T09:30:26.723Z,60.00
2018-02-13T09:31:27.787Z,59.50
2018-02-13T09:32:28.857Z,60.00
2018-02-13T09:33:29.965Z,59.80
2018-02-13T09:34:31.014Z,59.80
2018-02-13T09:35:32.111Z,59.20
2018-02-13T09:36:33.237Z,57.80
2018-02-13T09:37:35.372Z,58.40
2018-02-13T09:38:37.190Z,59.50
2018-02-13T09:39:38.291Z,59.50
2018-02-13T09:40:39.365Z,60.40
2018-02-13T09:41:40.444Z,60.10
2018-02-13T09:42:41.535Z,58.80
2018-02-13T09:43:43.351Z,57.90
2018-02-13T09:44:44.416Z,57.90
2018-02-13T09:45:46.299Z,58.10
2018-02-13T09:46:47.315Z,57.90
2018-02-13T09:47:48.381Z,58.00
2018-02-13T09:48:49.455Z,57.50
2018-02-13T09:49:50.542Z,57.70
2018-02-13T09:50:51.647Z,58.10
2018-02-13T09:51:52.735Z,57.60
2018-02-13T09:52:53.791Z,57.40
2018-02-13T09:53:55.659Z,56.40
2018-02-13T09:54:56.715Z,56.40
2018-02-13T09:55:57.819Z,57.10
2018-02-13T09:56:59.651Z,56.90
2018-02-13T09:58:00.756Z,56.80
2018-02-13T09:59:01.827Z,55.20
2018-02-13T10:00:03.636Z,54.90
2018-02-13T10:01:04.735Z,54.90
2018-02-13T10:02:05.787Z,54.80
2018-02-13T10:03:07.055Z,55.00
2018-02-13T10:04:09.120Z,55.10
2018-02-13T10:05:10.946Z,55.00
2018-02-13T10:06:12.040Z,55.00
2018-02-13T10:07:13.153Z,54.20
2018-02-13T10:08:14.967Z,53.50
2018-02-13T10:09:16.059Z,53.40
2018-02-13T10:10:17.152Z,53.90
2018-02-13T10:11:18.260Z,52.20
2018-02-13T10:12:19.335Z,52.70
2018-02-13T10:13:21.152Z,52.10
2018-02-13T10:14:22.217Z,52.00
2018-02-13T10:15:23.301Z,51.40
2018-02-13T10:16:24.400Z,51.20
2018-02-13T10:17:25.508Z,51.50
2018-02-13T10:18:26.611Z,52.60
2018-02-13T10:19:27.675Z,52.20
2018-02-13T10:20:28.781Z,51.20
2018-02-13T10:21:29.879Z,52.20
2018-02-13T10:22:30.996Z,51.40
2018-02-13T10:23:32.360Z,50.80
2018-02-13T10:24:34.411Z,51.10
2018-02-13T10:25:35.479Z,51.10
2018-02-13T10:26:36.564Z,51.00
2018-02-13T10:27:37.660Z,50.80
2018-02-13T10:28:38.744Z,50.40
2018-02-13T10:29:39.813Z,50.40
2018-02-13T10:30:40.900Z,50.40
2018-02-13T10:31:42.004Z,50.50
2018-02-13T10:32:43.071Z,50.00
2018-02-13T10:33:44.147Z,49.60
2018-02-13T10:34:45.973Z,49.80
2018-02-13T10:35:47.118Z,49.80
2018-02-13T10:36:48.164Z,50.10
2018-02-13T10:37:49.228Z,49.10
2018-02-13T10:38:50.311Z,45.90
2018-02-13T10:39:51.384Z,46.60
2018-02-13T10:40:52.450Z,46.90
2018-02-13T10:41:53.579Z,46.90
2018-02-13T10:42:54.679Z,47.60
2018-02-13T10:43:55.798Z,47.50
2018-02-13T10:44:56.904Z,48.00
2018-02-13T10:45:58.014Z,48.70
2018-02-13T10:46:59.108Z,48.30
2018-02-13T10:48:00.200Z,48.30
2018-02-13T10:49:01.272Z,46.30
2018-02-13T10:50:02.460Z,47.00
2018-02-13T10:51:03.555Z,45.80
2018-02-13T10:52:04.655Z,45.70
2018-02-13T10:53:06.491Z,43.60
2018-02-13T10:54:07.628Z,43.60
2018-02-13T10:55:09.480Z,44.80
2018-02-13T10:56:10.584Z,44.30
2018-02-13T10:57:11.659Z,45.80
2018-02-13T10:58:12.752Z,45.10
2018-02-13T10:59:13.816Z,45.70
2018-02-13T11:00:14.892Z,45.80
2018-02-13T11:01:22.044Z,44.50
2018-02-13T11:02:23.143Z,45.40
2018-02-13T11:03:24.244Z,45.10
2018-02-13T11:04:25.324Z,46.00
2018-02-13T11:05:26.416Z,46.20
2018-02-13T11:06:27.487Z,46.30
2018-02-13T11:07:29.292Z,44.80
2018-02-13T11:08:30.367Z,44.70
2018-02-13T11:09:31.439Z,43.80
2018-02-13T11:10:32.527Z,44.40
2018-02-13T11:11:34.384Z,44.00
2018-02-13T11:12:36.229Z,45.20
2018-02-13T11:13:38.056Z,46.20
2018-02-13T11:14:39.148Z,46.20
2018-02-13T11:15:40.241Z,45.20
2018-02-13T11:16:41.340Z,44.60
2018-02-13T11:17:42.428Z,45.30
2018-02-13T11:18:43.512Z,44.00
2018-02-13T11:19:45.347Z,44.50
2018-02-13T11:20:46.452Z,44.50
2018-02-13T11:21:47.532Z,44.90
2018-02-13T11:22:48.604Z,45.00
2018-02-13T11:23:49.672Z,44.10
2018-02-13T11:24:50.745Z,45.20
2018-02-13T11:25:51.811Z,44.50
2018-02-13T11:26:52.875Z,44.70
2018-02-13T11:27:53.975Z,44.60
2018-02-13T11:28:55.035Z,43.90
2018-02-13T11:29:56.108Z,43.50
2018-02-13T11:30:57.175Z,44.50
2018-02-13T11:31:58.262Z,46.00
2018-02-13T11:32:59.363Z,45.80
2018-02-13T11:34:00.471Z,44.90
2018-02-13T11:35:01.546Z,45.20
2018-02-13T11:36:02.628Z,44.60
2018-02-13T11:37:03.718Z,43.80
2018-02-13T11:38:04.815Z,44.90
2018-02-13T11:39:05.917Z,46.10
2018-02-13T11:40:06.999Z,43.70
2018-02-13T11:41:08.063Z,44.70
2018-02-13T11:42:09.127Z,44.20
2018-02-13T11:43:10.224Z,44.20
2018-02-13T11:44:11.308Z,43.50
2018-02-13T11:45:12.380Z,42.40
2018-02-13T11:46:13.463Z,41.90
2018-02-13T11:47:14.553Z,43.30
2018-02-13T11:48:15.641Z,42.80
2018-02-13T11:49:16.776Z,42.90
2018-02-13T11:50:17.850Z,42.40
2018-02-13T11:51:18.936Z,42.80
2018-02-13T11:52:20.025Z,42.40
2018-02-13T11:53:21.840Z,42.50
2018-02-13T11:54:23.291Z,42.50
2018-02-13T11:55:24.444Z,42.50
2018-02-13T11:56:26.267Z,42.60
2018-02-13T11:57:27.358Z,42.70
2018-02-13T11:58:28.426Z,42.60
2018-02-13T11:59:29.499Z,42.60
2018-02-13T12:00:31.319Z,42.70
2018-02-13T12:01:32.372Z,42.70
2018-02-13T12:02:34.184Z,42.80
2018-02-13T12:03:35.292Z,42.80
2018-02-13T12:04:36.416Z,39.60
2018-02-13T12:05:37.496Z,41.80
2018-02-13T12:06:38.587Z,41.60
2018-02-13T12:07:39.668Z,42.20
2018-02-13T12:08:40.756Z,41.60
2018-02-13T12:09:42.591Z,40.00
2018-02-13T12:10:43.677Z,40.00
2018-02-13T12:11:44.783Z,39.40
2018-02-13T12:12:45.942Z,39.50
2018-02-13T12:13:47.808Z,38.80
2018-02-13T12:14:49.646Z,38.70
2018-02-13T12:15:50.747Z,38.70
2018-02-13T12:16:51.851Z,40.40
2018-02-13T12:17:52.956Z,39.80
2018-02-13T12:18:54.088Z,39.70
2018-02-13T12:19:55.179Z,39.40
2018-02-13T12:20:56.349Z,38.10
2018-02-13T12:21:57.452Z,38.50
2018-02-13T12:22:58.555Z,39.30
2018-02-13T12:23:59.691Z,38.10
2018-02-13T12:25:00.771Z,38.80
2018-02-13T12:26:01.877Z,39.60
2018-02-13T12:27:02.984Z,40.80
2018-02-13T12:28:04.168Z,39.70
2018-02-13T12:29:05.305Z,39.50
2018-02-13T12:30:06.431Z,40.40
2018-02-13T12:31:07.563Z,40.00
2018-02-13T12:32:08.684Z,40.60
2018-02-13T12:33:09.813Z,40.00
2018-02-13T12:34:10.948Z,39.50
2018-02-13T12:35:12.057Z,39.70
2018-02-13T12:36:13.173Z,39.80
2018-02-13T12:37:14.293Z,39.50
2018-02-13T12:38:16.139Z,39.90
2018-02-13T12:39:18.025Z,39.50
2018-02-13T12:40:19.253Z,39.50
2018-02-13T12:41:20.515Z,39.50
2018-02-13T12:42:21.722Z,39.00
2018-02-13T12:43:22.832Z,39.00
2018-02-13T12:44:23.962Z,39.10
2018-02-13T12:45:25.812Z,40.60
2018-02-13T12:46:27.665Z,39.60
2018-02-13T12:47:28.813Z,39.50
2018-02-13T12:48:29.928Z,39.50
2018-02-13T12:49:31.799Z,38.50
2018-02-13T12:50:32.907Z,38.40
2018-02-13T12:51:34.013Z,38.80
2018-02-13T12:52:35.099Z,38.80
2018-02-13T12:53:36.267Z,40.90
2018-02-13T12:54:37.375Z,39.70
2018-02-13T12:55:38.480Z,40.00
2018-02-13T12:56:40.298Z,39.90
2018-02-13T12:57:41.418Z,39.80
2018-02-13T12:58:42.504Z,40.90
2018-02-13T12:59:44.358Z,40.80
2018-02-13T13:00:45.462Z,40.80
2018-02-13T13:01:46.559Z,40.30
2018-02-13T13:02:47.668Z,39.70
2018-02-13T13:03:48.792Z,40.40
2018-02-13T13:04:49.915Z,40.40
2018-02-13T13:05:51.752Z,40.70
2018-02-13T13:06:52.867Z,40.70
2018-02-13T13:07:53.963Z,40.40
2018-02-13T13:08:55.072Z,39.60
2018-02-13T13:09:56.203Z,38.60
2018-02-13T13:10:57.319Z,39.90
2018-02-13T13:11:58.404Z,39.50
2018-02-13T13:12:59.496Z,40.10